Time;durP1;ratioP1;P1;durP2;ratioP2;P2;SDS_P1;SDS_P2;PMS_P1;PMS_P2;Temp;Humidity;BMP_temperature;BMP_pressure;BME280_temperature;BME280_humidity;BME280_pressure;Samples;Min_cycle;Max_cycle;Signal;HPM_P1;HPM_P2
2024/02/03 10:43:21;;;;;;;3.80;2.80;;;12.80;99.90;;;;;;6235176;22;20086;-61
2024/02/03 10:46:08;;;;;;;4.20;3.10;;;12.80;99.90;;;;;;6240783;23;20027;-61
2024/02/03 10:48:58;;;;;;;4.78;2.90;;;12.80;99.90;;;;;;6241618;23;20063;-62
2024/02/03 10:51:48;;;;;;;4.68;3.13;;;12.80;99.90;;;;;;6241211;23;20019;-62
2024/02/03 10:54:35;;;;;;;4.10;3.25;;;12.80;99.90;;;;;;6240335;23;20019;-62
2024/02/03 10:57:24;;;;;;;4.45;3.00;;;12.80;99.90;;;;;;6240924;23;20008;-61
2024/02/03 11:00:10;;;;;;;4.18;2.92;;;12.90;99.90;;;;;;6240320;23;20008;-62
2024/02/03 11:03:00;;;;;;;4.28;2.83;;;12.90;99.90;;;;;;6239125;23;20008;-62
2024/02/03 11:05:46;;;;;;;4.80;2.60;;;12.90;99.90;;;;;;6241019;23;20089;-69
2024/02/03 11:08:33;;;;;;;4.78;2.80;;;12.90;99.90;;;;;;6241569;23;20008;-69
2024/02/03 11:11:28;;;;;;;7.00;2.88;;;13.10;99.90;;;;;;6241125;23;20366;-70
2024/02/03 11:14:15;;;;;;;5.70;3.45;;;13.10;99.90;;;;;;6239943;23;20396;-69
2024/02/03 11:17:03;;;;;;;9.32;3.22;;;13.30;99.90;;;;;;6241833;23;20012;-70
2024/02/03 11:19:50;;;;;;;5.97;2.75;;;13.30;99.90;;;;;;6239257;23;20015;-69
2024/02/03 11:22:40;;;;;;;6.05;3.03;;;13.40;99.90;;;;;;6242772;23;20015;-70
2024/02/03 11:25:27;;;;;;;5.68;2.90;;;13.40;99.90;;;;;;6240878;23;20020;-70
2024/02/03 11:28:13;;;;;;;3.65;2.90;;;13.50;99.90;;;;;;6241156;23;20015;-69
2024/02/03 11:31:06;;;;;;;6.97;2.80;;;13.60;99.90;;;;;;6243108;23;20013;-69
2024/02/03 11:33:52;;;;;;;5.78;3.20;;;13.60;99.90;;;;;;6243872;23;20000;-69
2024/02/03 11:36:38;;;;;;;12.82;2.97;;;13.60;99.90;;;;;;6242938;23;20359;-70
2024/02/03 11:39:31;;;;;;;10.02;2.60;;;13.70;99.90;;;;;;6242986;23;20042;-68
2024/02/03 11:42:16;;;;;;;3.47;2.67;;;13.70;99.90;;;;;;6242874;23;20361;-63
2024/02/03 11:45:04;;;;;;;4.68;2.75;;;13.70;99.90;;;;;;6240945;23;20024;-63
2024/02/03 11:47:50;;;;;;;4.05;2.67;;;13.70;99.90;;;;;;6241828;23;20636;-63
2024/02/03 11:50:36;;;;;;;4.43;2.80;;;13.60;99.90;;;;;;6242377;23;20695;-63
2024/02/03 11:53:26;;;;;;;5.20;3.63;;;13.50;99.90;;;;;;6241001;23;20016;-62
2024/02/03 11:56:12;;;;;;;4.43;2.72;;;13.50;99.90;;;;;;6242569;23;20066;-62
2024/02/03 11:58:58;;;;;;;3.42;2.65;;;13.40;99.90;;;;;;6241344;23;20364;-63
2024/02/03 12:01:44;;;;;;;4.28;2.80;;;13.30;99.90;;;;;;6241145;23;20035;-62
2024/02/03 12:04:30;;;;;;;4.05;2.70;;;13.30;99.90;;;;;;6241920;23;20250;-62
2024/02/03 12:07:17;;;;;;;4.47;3.10;;;13.20;99.90;;;;;;6240895;23;20020;-64
2024/02/03 12:10:04;;;;;;;5.47;4.07;;;13.20;99.90;;;;;;6242456;23;20020;-63
2024/02/03 12:12:49;;;;;;;4.65;2.88;;;13.20;99.90;;;;;;6242657;23;20095;-62
2024/02/03 12:15:35;;;;;;;4.20;3.05;;;13.10;99.90;;;;;;6240995;23;20062;-63
2024/02/03 12:18:21;;;;;;;5.18;3.38;;;13.10;99.90;;;;;;6240772;23;20015;-63
2024/02/03 12:21:07;;;;;;;4.72;3.55;;;13.10;99.90;;;;;;6241283;23;20015;-63
2024/02/03 12:23:53;;;;;;;4.95;3.30;;;13.10;99.90;;;;;;6240835;23;20020;-63
2024/02/03 12:26:40;;;;;;;4.93;3.08;;;13.00;99.90;;;;;;6217366;23;20016;-62
2024/02/03 12:29:26;;;;;;;3.92;3.08;;;13.10;99.90;;;;;;6242031;23;20015;-62
2024/02/03 12:32:12;;;;;;;4.25;3.10;;;13.00;99.90;;;;;;6240931;23;20019;-62
2024/02/03 12:34:58;;;;;;;5.95;3.92;;;13.00;99.90;;;;;;6241273;23;20344;-64
2024/02/03 12:37:44;;;;;;;5.43;3.10;;;13.00;99.90;;;;;;6243494;23;20345;-62
2024/02/03 12:40:30;;;;;;;5.50;3.30;;;13.00;99.90;;;;;;6240010;23;20418;-63
2024/02/03 12:43:16;;;;;;;4.45;3.22;;;13.00;99.90;;;;;;6241966;22;20004;-63
2024/02/03 12:46:02;;;;;;;4.93;3.33;;;13.10;99.90;;;;;;6240350;23;20024;-63
2024/02/03 12:48:50;;;;;;;6.80;3.17;;;13.10;99.90;;;;;;6240534;23;20035;-63
2024/02/03 12:51:36;;;;;;;4.88;3.45;;;13.10;99.90;;;;;;6240395;23;20020;-63
2024/02/03 12:54:22;;;;;;;6.50;3.50;;;13.10;99.90;;;;;;6241254;23;20039;-64
2024/02/03 12:57:08;;;;;;;4.10;2.67;;;13.10;99.90;;;;;;6240903;23;20102;-62
2024/02/03 12:59:54;;;;;;;4.72;3.22;;;13.10;99.90;;;;;;6240948;23;20019;-61
2024/02/03 13:02:40;;;;;;;5.60;3.60;;;13.10;99.90;;;;;;6238424;23;20012;-62
2024/02/03 13:05:26;;;;;;;5.80;3.45;;;13.10;99.90;;;;;;6239628;23;20073;-62
2024/02/03 13:08:12;;;;;;;5.65;3.33;;;13.10;99.90;;;;;;6242643;23;20517;-63
2024/02/03 13:10:58;;;;;;;6.53;3.38;;;13.10;99.90;;;;;;6219805;23;20019;-63
2024/02/03 13:13:44;;;;;;;4.68;3.05;;;13.10;99.90;;;;;;6241503;23;20460;-63
2024/02/03 13:16:31;;;;;;;4.47;2.95;;;13.10;99.90;;;;;;6240272;23;20510;-62
2024/02/03 13:19:17;;;;;;;4.93;3.33;;;13.10;99.90;;;;;;6240783;23;20015;-62
2024/02/03 13:22:04;;;;;;;4.40;2.97;;;13.20;99.90;;;;;;6240474;23;20016;-62
2024/02/03 13:24:50;;;;;;;4.75;3.33;;;13.20;99.90;;;;;;6237692;23;20012;-63
2024/02/03 13:27:36;;;;;;;5.05;3.55;;;13.20;99.90;;;;;;6238357;23;20016;-62
2024/02/03 13:30:22;;;;;;;4.30;3.20;;;13.20;99.90;;;;;;6237497;23;20008;-63
2024/02/03 13:33:10;;;;;;;5.22;3.53;;;13.20;99.90;;;;;;6240119;23;20054;-63
2024/02/03 13:35:56;;;;;;;4.05;2.70;;;13.20;99.90;;;;;;6218429;23;20081;-72
2024/02/03 13:38:42;;;;;;;4.72;3.40;;;13.20;99.90;;;;;;6219829;23;20492;-71
2024/02/03 13:41:28;;;;;;;4.10;3.03;;;13.20;99.90;;;;;;6240237;23;20008;-71
2024/02/03 13:44:14;;;;;;;4.47;2.92;;;13.20;99.90;;;;;;6239931;23;20020;-71
2024/02/03 13:47:01;;;;;;;5.53;3.33;;;13.20;99.90;;;;;;6240101;23;20027;-71
2024/02/03 13:49:47;;;;;;;5.90;3.70;;;13.10;99.90;;;;;;6241682;23;20038;-71
2024/02/03 13:52:33;;;;;;;6.35;3.78;;;13.10;99.90;;;;;;6240658;23;20018;-71
2024/02/03 13:55:20;;;;;;;3.85;2.97;;;13.10;99.90;;;;;;6241207;23;20016;-71
2024/02/03 13:58:05;;;;;;;3.45;2.85;;;13.10;99.90;;;;;;6241667;23;20012;-71
2024/02/03 14:00:51;;;;;;;4.75;2.95;;;13.00;99.90;;;;;;6240876;23;20012;-70
2024/02/03 14:03:37;;;;;;;3.85;2.75;;;13.00;99.90;;;;;;6241237;23;20027;-63
2024/02/03 14:06:23;;;;;;;4.90;3.08;;;13.00;99.90;;;;;;6239494;23;20028;-61
2024/02/03 14:09:10;;;;;;;3.83;2.65;;;12.90;99.90;;;;;;6238370;23;20088;-61
2024/02/03 14:11:56;;;;;;;4.30;3.10;;;12.90;99.90;;;;;;6239153;23;20441;-62
2024/02/03 14:14:42;;;;;;;5.07;3.42;;;12.90;99.90;;;;;;6218158;23;20005;-62
2024/02/03 14:17:28;;;;;;;4.72;3.20;;;12.90;99.90;;;;;;6239396;23;20011;-62
2024/02/03 14:20:14;;;;;;;7.35;3.30;;;13.00;99.90;;;;;;6237208;23;20036;-62
2024/02/03 14:23:00;;;;;;;5.07;3.25;;;13.00;99.90;;;;;;6240114;23;20086;-62
2024/02/03 14:25:46;;;;;;;4.38;3.05;;;13.00;99.90;;;;;;6240599;23;20023;-62
2024/02/03 14:28:33;;;;;;;3.70;3.00;;;13.00;99.90;;;;;;6240019;23;20008;-62
2024/02/03 14:31:19;;;;;;;4.32;3.05;;;13.00;99.90;;;;;;6240222;23;20016;-62
2024/02/03 14:34:05;;;;;;;4.80;3.50;;;13.00;99.90;;;;;;6240358;23;20087;-62
2024/02/03 14:36:51;;;;;;;4.43;2.88;;;13.00;99.90;;;;;;6240697;23;20500;-62
2024/02/03 14:39:37;;;;;;;4.55;2.80;;;13.00;99.90;;;;;;6240563;23;20009;-62
2024/02/03 14:42:23;;;;;;;3.75;2.85;;;13.00;99.90;;;;;;6218285;23;20353;-62
2024/02/03 14:45:10;;;;;;;5.50;2.80;;;13.00;99.90;;;;;;6239920;23;20085;-62
2024/02/03 14:47:56;;;;;;;3.95;2.78;;;13.00;99.90;;;;;;6240453;23;20063;-61
2024/02/03 14:50:42;;;;;;;6.75;2.50;;;12.90;99.90;;;;;;6241130;23;20042;-62
2024/02/03 14:53:28;;;;;;;3.42;2.35;;;12.90;99.90;;;;;;6243960;23;20018;-62
2024/02/03 14:56:14;;;;;;;3.38;2.30;;;12.90;99.90;;;;;;6240976;23;20007;-62
2024/02/03 14:59:00;;;;;;;4.20;2.45;;;12.90;99.90;;;;;;6242021;23;20016;-62
2024/02/03 15:01:46;;;;;;;3.83;2.38;;;12.90;99.90;;;;;;6242129;23;20008;-62
2024/02/03 15:04:32;;;;;;;3.78;2.60;;;12.80;99.90;;;;;;6242189;23;20066;-62
2024/02/03 15:07:18;;;;;;;3.40;2.20;;;12.80;99.90;;;;;;6242018;23;20052;-62
2024/02/03 15:10:05;;;;;;;4.32;2.80;;;12.80;99.90;;;;;;6242173;23;20079;-63
2024/02/03 15:12:51;;;;;;;3.83;2.50;;;12.70;99.90;;;;;;6241319;23;20083;-62
2024/02/03 15:15:37;;;;;;;4.20;2.58;;;12.70;99.90;;;;;;6242174;23;20473;-62
2024/02/03 15:18:23;;;;;;;4.50;3.22;;;12.70;99.90;;;;;;6242303;23;20508;-62
2024/02/03 15:21:09;;;;;;;5.43;3.03;;;12.60;99.90;;;;;;6242315;23;20445;-62
2024/02/03 15:23:55;;;;;;;3.75;2.60;;;12.60;99.90;;;;;;6241804;23;20012;-62
2024/02/03 15:26:41;;;;;;;4.82;2.85;;;12.60;99.90;;;;;;6241860;23;20016;-63
2024/02/03 15:29:27;;;;;;;4.43;3.60;;;12.60;99.90;;;;;;6221106;23;20011;-61
2024/02/03 15:32:13;;;;;;;4.80;3.58;;;12.50;99.90;;;;;;6241604;23;20048;-62
2024/02/03 15:34:59;;;;;;;14.10;3.95;;;12.50;99.90;;;;;;6241362;23;20384;-62
2024/02/03 15:37:46;;;;;;;5.10;3.63;;;12.50;99.90;;;;;;6242335;23;20004;-61
2024/02/03 15:40:31;;;;;;;5.78;4.13;;;12.50;99.90;;;;;;6241399;23;20031;-61
2024/02/03 15:43:19;;;;;;;5.85;3.92;;;12.40;99.90;;;;;;6241006;22;20008;-61
2024/02/03 15:46:06;;;;;;;5.88;3.33;;;12.40;99.90;;;;;;6240988;23;20024;-62
2024/02/03 15:48:53;;;;;;;4.93;3.72;;;12.40;99.90;;;;;;6242136;23;20005;-62
2024/02/03 15:51:39;;;;;;;6.05;4.18;;;12.50;99.90;;;;;;6240451;23;20012;-63
2024/02/03 15:54:25;;;;;;;5.53;3.50;;;12.50;99.90;;;;;;6237812;23;20012;-62
2024/02/03 15:57:11;;;;;;;4.97;3.47;;;12.40;99.90;;;;;;6241833;23;20091;-61
2024/02/03 15:59:57;;;;;;;4.90;3.63;;;12.40;99.90;;;;;;6243126;23;20008;-61
2024/02/03 16:02:43;;;;;;;5.53;3.60;;;12.40;99.90;;;;;;6242555;23;20095;-62
2024/02/03 16:05:29;;;;;;;5.78;4.45;;;12.40;99.90;;;;;;6242540;23;20162;-62
2024/02/03 16:08:15;;;;;;;6.45;4.88;;;12.30;99.90;;;;;;6241828;23;20043;-62
2024/02/03 16:11:01;;;;;;;7.60;4.50;;;12.30;99.90;;;;;;6241397;23;20535;-62
2024/02/03 16:13:48;;;;;;;5.80;4.50;;;12.30;99.90;;;;;;6241703;23;20004;-62
2024/02/03 16:16:34;;;;;;;7.75;4.90;;;12.20;99.90;;;;;;6240945;23;20492;-62
2024/02/03 16:19:21;;;;;;;8.43;5.25;;;12.20;99.90;;;;;;6241249;23;20019;-63
2024/02/03 16:22:07;;;;;;;8.05;5.50;;;12.30;99.90;;;;;;6242809;23;20040;-62
2024/02/03 16:24:52;;;;;;;7.43;4.90;;;12.20;99.90;;;;;;6243914;23;20106;-62
2024/02/03 16:27:40;;;;;;;7.45;5.57;;;12.20;99.90;;;;;;6242593;23;20023;-61
2024/02/03 16:30:26;;;;;;;6.95;5.22;;;12.20;99.90;;;;;;6243138;23;20495;-62
2024/02/03 16:33:12;;;;;;;6.53;4.72;;;12.10;99.90;;;;;;6243230;23;20008;-62
2024/02/03 16:35:58;;;;;;;7.65;5.90;;;12.10;99.90;;;;;;6242250;23;20012;-62
2024/02/03 16:38:44;;;;;;;7.32;5.63;;;12.10;99.90;;;;;;6241806;23;20008;-63
2024/02/03 16:41:29;;;;;;;10.10;6.45;;;12.10;99.90;;;;;;6220703;23;20008;-62
2024/02/03 16:44:15;;;;;;;10.07;6.20;;;12.10;99.90;;;;;;6243070;23;20020;-62
2024/02/03 16:47:01;;;;;;;8.13;5.85;;;12.10;99.90;;;;;;6240856;23;20099;-63
2024/02/03 16:49:47;;;;;;;8.25;5.70;;;12.10;99.90;;;;;;6241529;23;20004;-63
2024/02/03 16:52:33;;;;;;;8.20;6.18;;;12.10;99.90;;;;;;6243390;23;20491;-62
2024/02/03 16:55:19;;;;;;;7.55;5.63;;;12.10;99.90;;;;;;6240355;23;20433;-71
2024/02/03 16:58:05;;;;;;;7.32;5.68;;;12.10;99.90;;;;;;6240452;23;20027;-70
2024/02/03 17:00:51;;;;;;;7.93;5.93;;;12.10;99.90;;;;;;6241194;23;20019;-71
2024/02/03 17:03:37;;;;;;;10.10;7.05;;;12.10;99.90;;;;;;6242921;23;20016;-70
2024/02/03 17:06:30;;;;;;;9.75;6.07;;;12.10;99.90;;;;;;6240301;23;20472;-70
2024/02/03 17:09:17;;;;;;;8.93;5.95;;;12.10;99.90;;;;;;6241706;23;20087;-70
2024/02/03 17:12:03;;;;;;;8.35;5.45;;;12.10;99.90;;;;;;6242624;23;20023;-69
2024/02/03 17:14:49;;;;;;;8.70;6.25;;;12.10;99.90;;;;;;6240855;23;20406;-67
2024/02/03 17:17:35;;;;;;;7.28;5.40;;;12.10;99.90;;;;;;6239772;23;20040;-68
2024/02/03 17:20:21;;;;;;;6.70;5.63;;;12.10;99.90;;;;;;6241621;23;20096;-67
2024/02/03 17:23:07;;;;;;;8.07;5.18;;;12.10;99.90;;;;;;6241147;23;20091;-68
2024/02/03 17:25:53;;;;;;;8.27;6.20;;;12.10;99.90;;;;;;6243238;23;20024;-68
2024/02/03 17:28:39;;;;;;;7.35;5.53;;;12.10;99.90;;;;;;6240704;23;20074;-68
2024/02/03 17:31:25;;;;;;;7.50;5.30;;;12.10;99.90;;;;;;6240435;23;20012;-69
2024/02/03 17:34:11;;;;;;;9.50;6.55;;;12.10;99.90;;;;;;6240369;23;20011;-68
2024/02/03 17:36:57;;;;;;;7.47;5.95;;;12.10;99.90;;;;;;6241536;23;20326;-68
2024/02/03 17:39:43;;;;;;;10.38;6.45;;;12.10;99.90;;;;;;6239683;23;20453;-68
2024/02/03 17:42:29;;;;;;;8.73;6.30;;;12.10;99.90;;;;;;6240770;23;20004;-70
2024/02/03 17:45:15;;;;;;;7.13;5.78;;;12.10;99.90;;;;;;6240555;23;20212;-69
2024/02/03 17:48:01;;;;;;;9.02;6.25;;;12.10;99.90;;;;;;6240638;23;20409;-69
2024/02/03 17:50:48;;;;;;;7.80;5.85;;;12.10;99.90;;;;;;6240206;23;20075;-69
2024/02/03 17:53:35;;;;;;;9.63;6.72;;;12.10;99.90;;;;;;6239437;23;20408;-69
2024/02/03 17:56:21;;;;;;;10.07;7.20;;;12.10;99.90;;;;;;6239910;23;20008;-68
2024/02/03 17:59:08;;;;;;;9.90;6.78;;;12.20;99.90;;;;;;6241771;23;20008;-69
2024/02/03 18:01:54;;;;;;;12.77;6.72;;;12.10;99.90;;;;;;6244020;22;20015;-69
2024/02/03 18:04:39;;;;;;;13.45;6.82;;;12.10;99.90;;;;;;6240832;23;20012;-68
2024/02/03 18:07:26;;;;;;;8.45;6.10;;;12.10;99.90;;;;;;6240933;23;20467;-69
2024/02/03 18:10:12;;;;;;;6.97;5.78;;;12.10;99.90;;;;;;6240269;23;20449;-69
2024/02/03 18:12:58;;;;;;;7.95;5.50;;;12.10;99.90;;;;;;6239621;23;20009;-69
2024/02/03 18:15:43;;;;;;;8.05;5.95;;;12.10;99.90;;;;;;6241700;23;20035;-69
2024/02/03 18:18:29;;;;;;;7.90;5.53;;;12.10;99.90;;;;;;6240681;23;20062;-70
2024/02/03 18:21:16;;;;;;;8.70;5.25;;;12.10;99.90;;;;;;6237151;23;20004;-69
2024/02/03 18:24:03;;;;;;;8.55;6.63;;;12.10;99.90;;;;;;6241582;23;20083;-69
2024/02/03 18:26:49;;;;;;;9.60;6.07;;;12.00;99.90;;;;;;6238933;23;20020;-70
2024/02/03 18:29:38;;;;;;;9.75;6.95;;;12.00;99.90;;;;;;6242713;23;20012;-69
2024/02/03 18:32:24;;;;;;;12.10;7.28;;;12.00;99.90;;;;;;6240039;23;20016;-71
2024/02/03 18:35:10;;;;;;;12.77;7.55;;;12.00;99.90;;;;;;6240327;23;20100;-70
2024/02/03 18:37:56;;;;;;;9.77;6.35;;;12.00;99.90;;;;;;6239594;23;20061;-73
2024/02/03 18:40:42;;;;;;;13.10;7.72;;;12.00;99.90;;;;;;6240437;23;20393;-71
2024/02/03 18:43:29;;;;;;;13.63;7.82;;;11.90;99.90;;;;;;6239057;22;20024;-71
2024/02/03 18:46:15;;;;;;;10.88;6.25;;;11.90;99.90;;;;;;6241850;23;20020;-71
2024/02/03 18:49:00;;;;;;;9.52;6.22;;;11.80;99.90;;;;;;6239001;23;20012;-70
2024/02/03 18:51:46;;;;;;;9.27;5.85;;;11.70;99.90;;;;;;6240395;23;20391;-71
2024/02/03 18:54:32;;;;;;;16.15;8.50;;;11.70;99.90;;;;;;6241006;23;20460;-71
2024/02/03 18:57:18;;;;;;;14.95;7.75;;;11.70;99.90;;;;;;6239302;23;20354;-69
2024/02/03 19:00:06;;;;;;;12.38;7.63;;;11.70;99.90;;;;;;6240113;23;20390;-69
2024/02/03 19:02:52;;;;;;;13.50;7.20;;;11.70;99.90;;;;;;6240463;23;20103;-69
2024/02/03 19:05:38;;;;;;;9.82;5.65;;;11.70;99.90;;;;;;6240225;23;20103;-69
2024/02/03 19:08:26;;;;;;;12.27;6.85;;;11.70;99.90;;;;;;6238778;23;20015;-68
2024/02/03 19:11:12;;;;;;;10.13;6.18;;;11.70;99.90;;;;;;6238964;23;20052;-68
2024/02/03 19:13:58;;;;;;;9.95;6.57;;;11.70;99.90;;;;;;6239615;23;20050;-70
2024/02/03 19:16:45;;;;;;;10.07;5.82;;;11.70;99.90;;;;;;6240671;23;20022;-68
2024/02/03 19:19:31;;;;;;;9.57;5.68;;;11.70;99.90;;;;;;6241615;23;20015;-70
2024/02/03 19:22:20;;;;;;;6.95;4.25;;;11.60;99.90;;;;;;6218328;23;20014;-69
2024/02/03 19:25:06;;;;;;;15.75;5.07;;;11.60;99.90;;;;;;6239303;23;20028;-69
2024/02/03 19:27:52;;;;;;;8.55;5.00;;;11.60;99.90;;;;;;6239550;23;20519;-69
2024/02/03 19:30:38;;;;;;;9.27;6.57;;;11.50;99.90;;;;;;6239987;23;20012;-68
2024/02/03 19:33:24;;;;;;;7.47;4.55;;;11.50;99.90;;;;;;6241591;23;20004;-70
2024/02/03 19:36:10;;;;;;;6.72;4.55;;;11.50;99.90;;;;;;6219065;23;20009;-69
2024/02/03 19:38:56;;;;;;;8.18;4.60;;;11.40;99.90;;;;;;6241638;23;20097;-69
2024/02/03 19:41:43;;;;;;;8.77;4.15;;;11.40;99.90;;;;;;6244118;23;20412;-70
2024/02/03 19:44:29;;;;;;;4.93;3.28;;;11.30;99.90;;;;;;6239315;23;20349;-68
2024/02/03 19:47:14;;;;;;;5.15;2.88;;;11.30;99.90;;;;;;6240955;23;20465;-69
2024/02/03 19:50:01;;;;;;;5.00;3.15;;;11.30;99.90;;;;;;6241500;23;20027;-70
2024/02/03 19:52:47;;;;;;;5.93;3.42;;;11.30;99.90;;;;;;6244327;22;20004;-68
2024/02/03 19:55:33;;;;;;;9.55;3.15;;;11.30;99.90;;;;;;6240634;23;20040;-70
2024/02/03 19:58:19;;;;;;;5.07;2.92;;;11.20;99.90;;;;;;6242705;23;20008;-70
2024/02/03 20:01:05;;;;;;;7.13;3.35;;;11.10;99.90;;;;;;6240215;23;20452;-69
2024/02/03 20:03:51;;;;;;;6.40;3.08;;;11.10;99.90;;;;;;6242509;23;20008;-71
2024/02/03 20:06:37;;;;;;;10.35;3.35;;;11.00;99.90;;;;;;6241816;23;20115;-70
2024/02/03 20:09:23;;;;;;;9.10;3.40;;;11.00;99.90;;;;;;6241343;23;20008;-71
2024/02/03 20:12:09;;;;;;;6.53;2.63;;;10.90;99.90;;;;;;6240427;23;20012;-70
2024/02/03 20:14:55;;;;;;;8.45;2.90;;;10.90;99.90;;;;;;6242355;23;20013;-69
2024/02/03 20:17:41;;;;;;;4.85;2.83;;;10.90;99.90;;;;;;6241327;23;20016;-68
2024/02/03 20:20:27;;;;;;;8.32;3.28;;;10.80;99.90;;;;;;6242054;23;20390;-69
2024/02/03 20:23:13;;;;;;;11.90;3.67;;;10.80;99.90;;;;;;6243196;23;20020;-68
2024/02/03 20:25:59;;;;;;;9.45;2.97;;;10.70;99.90;;;;;;6242286;23;20087;-68
2024/02/03 20:28:45;;;;;;;13.05;3.30;;;10.70;99.90;;;;;;6241170;23;20042;-67
2024/02/03 20:31:31;;;;;;;8.82;3.28;;;10.70;99.90;;;;;;6240311;23;20012;-68
2024/02/03 20:34:17;;;;;;;8.40;2.97;;;10.70;99.90;;;;;;6242337;23;20081;-69
2024/02/03 20:37:03;;;;;;;7.65;3.10;;;10.60;99.90;;;;;;6221117;23;20016;-69
2024/02/03 20:39:49;;;;;;;10.88;3.75;;;10.60;99.90;;;;;;6241288;23;20004;-72
2024/02/03 20:42:35;;;;;;;8.77;3.20;;;10.60;99.90;;;;;;6220323;23;20039;-72
2024/02/03 20:45:21;;;;;;;10.65;4.25;;;10.70;99.90;;;;;;6240816;23;20024;-71
2024/02/03 20:48:07;;;;;;;8.80;3.78;;;10.70;99.90;;;;;;6240794;23;20508;-72
2024/02/03 20:50:53;;;;;;;9.50;4.43;;;10.70;99.90;;;;;;6240657;23;20078;-72
2024/02/03 20:53:39;;;;;;;9.80;5.07;;;10.70;99.90;;;;;;6242100;23;20004;-73
2024/02/03 20:56:25;;;;;;;10.70;6.05;;;10.70;99.90;;;;;;6241083;23;20012;-71
2024/02/03 20:59:11;;;;;;;14.25;6.28;;;10.70;99.90;;;;;;6241581;23;20004;-73
2024/02/03 21:01:59;;;;;;;18.58;6.95;;;10.70;99.90;;;;;;6241931;23;20072;-72
2024/02/03 21:04:45;;;;;;;15.15;7.55;;;10.60;99.90;;;;;;6243329;23;20341;-73
2024/02/03 21:07:31;;;;;;;20.55;8.10;;;10.60;99.90;;;;;;6240382;23;20016;-72
2024/02/03 21:10:17;;;;;;;15.50;5.68;;;10.60;99.90;;;;;;6219749;23;20005;-72
2024/02/03 21:13:04;;;;;;;17.67;9.68;;;10.50;99.90;;;;;;6240192;23;20046;-72
2024/02/03 21:15:50;;;;;;;15.38;10.32;;;10.50;99.90;;;;;;6241462;23;20004;-73
2024/02/03 21:18:36;;;;;;;15.55;7.60;;;10.50;99.90;;;;;;6240186;23;20065;-72
2024/02/03 21:21:24;;;;;;;16.30;8.23;;;10.50;99.90;;;;;;6240929;23;20018;-70
2024/02/03 21:24:10;;;;;;;10.63;5.32;;;10.40;99.90;;;;;;6238461;23;20046;-72
2024/02/03 21:26:57;;;;;;;10.27;4.93;;;10.40;99.90;;;;;;6219542;23;20110;-72
2024/02/03 21:29:45;;;;;;;8.18;3.75;;;10.40;99.90;;;;;;6241035;23;20091;-71
2024/02/03 21:32:31;;;;;;;13.63;3.38;;;10.30;99.90;;;;;;6242362;23;20445;-72
2024/02/03 21:35:17;;;;;;;8.95;3.65;;;10.30;99.90;;;;;;6240916;23;20460;-72
2024/02/03 21:38:03;;;;;;;5.80;2.85;;;10.30;99.90;;;;;;6242502;23;20012;-72
2024/02/03 21:40:49;;;;;;;8.40;2.83;;;10.30;99.90;;;;;;6238966;23;20609;-71
2024/02/03 21:43:35;;;;;;;6.32;2.47;;;10.30;99.90;;;;;;6240630;23;20024;-67
2024/02/03 21:46:21;;;;;;;8.13;2.92;;;10.30;99.90;;;;;;6240632;23;20024;-70
2024/02/03 21:49:07;;;;;;;6.93;2.83;;;10.30;99.90;;;;;;6240554;23;20471;-68
2024/02/03 21:51:53;;;;;;;13.18;3.50;;;10.20;99.90;;;;;;6239896;23;20479;-67
2024/02/03 21:54:39;;;;;;;7.15;2.58;;;10.20;99.90;;;;;;6239802;23;20008;-67
2024/02/03 21:57:25;;;;;;;9.23;3.00;;;10.20;99.90;;;;;;6239678;23;20446;-68
2024/02/03 22:00:11;;;;;;;8.43;3.45;;;10.20;99.90;;;;;;6220119;23;20008;-68
2024/02/03 22:02:57;;;;;;;10.77;3.80;;;10.30;99.90;;;;;;6241665;23;20353;-67
2024/02/03 22:05:43;;;;;;;11.27;3.90;;;10.20;99.90;;;;;;6242251;23;20062;-68
2024/02/03 22:08:29;;;;;;;7.55;2.92;;;10.20;99.90;;;;;;6240750;23;20460;-67
2024/02/03 22:11:15;;;;;;;8.50;3.22;;;10.20;99.90;;;;;;6240510;23;20012;-67
2024/02/03 22:14:01;;;;;;;9.32;2.90;;;10.10;99.90;;;;;;6239337;23;20453;-67
2024/02/03 22:16:47;;;;;;;9.15;2.92;;;10.10;99.90;;;;;;6240777;23;20547;-67
2024/02/03 22:19:33;;;;;;;6.15;2.47;;;10.10;99.90;;;;;;6240162;23;20019;-66
2024/02/03 22:22:19;;;;;;;4.82;2.13;;;10.10;99.90;;;;;;6240742;23;20026;-66
2024/02/03 22:25:05;;;;;;;6.63;2.83;;;10.10;99.90;;;;;;6240380;23;20352;-67
2024/02/03 22:27:51;;;;;;;5.93;2.53;;;10.00;99.90;;;;;;6243088;23;20349;-67
2024/02/03 22:30:37;;;;;;;6.32;2.13;;;10.00;99.90;;;;;;6240404;23;20015;-67
2024/02/03 22:33:23;;;;;;;11.07;3.08;;;10.10;99.90;;;;;;6240054;23;20016;-67
2024/02/03 22:36:09;;;;;;;8.43;3.03;;;10.10;99.90;;;;;;6239733;23;20059;-67
2024/02/03 22:38:55;;;;;;;9.30;4.13;;;10.10;99.90;;;;;;6240302;23;20460;-67
2024/02/03 22:41:41;;;;;;;15.65;4.82;;;10.00;99.90;;;;;;6240396;23;20008;-67
2024/02/03 22:44:27;;;;;;;7.63;3.40;;;10.10;99.90;;;;;;6240164;23;20115;-67
2024/02/03 22:47:13;;;;;;;12.07;3.72;;;10.00;99.90;;;;;;6239542;23;20050;-66
2024/02/03 22:49:59;;;;;;;11.25;4.57;;;10.10;99.90;;;;;;6240681;23;20409;-67
2024/02/03 22:52:45;;;;;;;10.38;4.05;;;10.10;99.90;;;;;;6239704;23;20421;-67
2024/02/03 22:55:33;;;;;;;9.65;3.75;;;10.10;99.90;;;;;;6240016;23;20441;-67
2024/02/03 22:58:20;;;;;;;6.22;3.45;;;10.20;99.90;;;;;;6240765;23;20046;-66
2024/02/03 23:01:06;;;;;;;10.20;4.22;;;10.10;99.90;;;;;;6241239;23;20018;-67
2024/02/03 23:03:52;;;;;;;10.20;4.50;;;10.10;99.90;;;;;;6242015;23;20059;-67
2024/02/03 23:06:38;;;;;;;8.35;3.42;;;10.10;99.90;;;;;;6239299;23;20547;-67
2024/02/03 23:09:24;;;;;;;7.90;3.38;;;10.20;99.90;;;;;;6239455;23;20008;-67
2024/02/03 23:12:11;;;;;;;7.72;3.08;;;10.20;99.90;;;;;;6241195;23;20433;-67
2024/02/03 23:14:56;;;;;;;6.60;3.35;;;10.20;99.90;;;;;;6244024;23;20012;-68
2024/02/03 23:17:43;;;;;;;7.03;3.03;;;10.20;99.90;;;;;;6242022;23;20012;-67
2024/02/03 23:20:29;;;;;;;8.40;3.25;;;10.30;99.90;;;;;;6241882;23;20342;-67
2024/02/03 23:23:15;;;;;;;7.07;2.60;;;10.30;99.90;;;;;;6243890;23;20019;-67
2024/02/03 23:26:01;;;;;;;7.88;3.22;;;10.30;99.90;;;;;;6241710;23;20464;-68
2024/02/03 23:28:47;;;;;;;9.18;2.97;;;10.30;99.90;;;;;;6241854;23;20008;-67
2024/02/03 23:31:33;;;;;;;9.98;3.13;;;10.30;99.90;;;;;;6244653;23;20063;-67
2024/02/03 23:34:19;;;;;;;9.55;2.92;;;10.30;99.90;;;;;;6241907;23;20322;-66
2024/02/03 23:37:05;;;;;;;8.55;3.25;;;10.20;99.90;;;;;;6242567;23;20012;-66
2024/02/03 23:39:51;;;;;;;4.65;2.28;;;10.20;99.90;;;;;;6241388;23;20031;-66
2024/02/03 23:42:37;;;;;;;8.02;2.70;;;10.10;99.90;;;;;;6240755;23;20460;-66
2024/02/03 23:45:23;;;;;;;4.68;2.70;;;10.20;99.90;;;;;;6243454;23;20053;-66
2024/02/03 23:48:09;;;;;;;8.75;3.47;;;10.20;99.90;;;;;;6242205;23;20016;-67
2024/02/03 23:50:55;;;;;;;7.07;2.83;;;10.20;99.90;;;;;;6241561;23;20008;-66
2024/02/03 23:53:41;;;;;;;7.45;2.90;;;10.20;99.90;;;;;;6243496;23;20091;-66
2024/02/03 23:56:27;;;;;;;8.80;3.10;;;10.20;99.90;;;;;;6242129;23;20008;-66
2024/02/03 23:59:13;;;;;;;8.10;3.25;;;10.20;99.90;;;;;;6243398;23;20016;-67
